Time;durP1;ratioP1;P1;durP2;ratioP2;P2;SDS_P1;SDS_P2;PMS_P1;PMS_P2;Temp;Humidity;BMP_temperature;BMP_pressure;BME280_temperature;BME280_humidity;BME280_pressure;Samples;Min_cycle;Max_cycle;Signal;HPM_P1;HPM_P2
2023/02/28 00:00:39;;;;;;;3.40;3.10;;;-2.70;73.30;;;-3.34;70.90;98812.41;5093477;28;20511;-71
2023/02/28 00:03:06;;;;;;;4.40;3.40;;;-2.70;73.20;;;-3.19;70.69;98821.06;5112361;27;20464;-69
2023/02/28 00:05:35;;;;;;;4.67;3.63;;;-2.60;73.00;;;-3.23;70.58;98817.81;5130148;27;20445;-70
2023/02/28 00:08:03;;;;;;;3.37;3.07;;;-2.60;73.00;;;-3.27;71.06;98824.22;5109676;28;20982;-69
2023/02/28 00:10:32;;;;;;;4.10;3.70;;;-2.50;72.90;;;-3.20;70.94;98820.22;5093346;28;20454;-69
2023/02/28 00:13:03;;;;;;;3.63;3.33;;;-2.50;73.00;;;-3.21;70.70;98815.03;5084952;28;20451;-68
2023/02/28 00:15:30;;;;;;;8.60;3.80;;;-2.50;72.90;;;-3.29;70.69;98810.28;5103976;28;20471;-70
2023/02/28 00:17:57;;;;;;;5.70;3.40;;;-2.50;72.80;;;-3.19;70.45;98810.47;5098446;28;20926;-69
2023/02/28 00:20:25;;;;;;;4.30;3.67;;;-2.50;72.80;;;-3.15;70.34;98812.81;5112479;27;20448;-72
2023/02/28 00:22:54;;;;;;;4.90;3.43;;;-2.40;72.50;;;-3.21;70.31;98807.97;5086229;28;20450;-71
2023/02/28 00:25:25;;;;;;;6.60;3.90;;;-2.50;72.50;;;-4.01;70.73;98675.22;5082437;28;20472;-72
2023/02/28 00:27:53;;;;;;;6.30;4.17;;;-2.50;72.70;;;-3.18;70.23;98822.78;5094797;28;20464;-71
2023/02/28 00:30:23;;;;;;;5.30;3.30;;;-2.50;72.80;;;-3.26;70.44;98796.88;5107178;27;20455;-70
2023/02/28 00:32:51;;;;;;;4.80;3.80;;;-2.50;72.70;;;-3.50;70.57;98760.63;5110660;27;20461;-71
2023/02/28 00:35:18;;;;;;;4.97;3.90;;;-2.40;73.00;;;-3.19;70.44;98805.19;5090774;28;20464;-70
2023/02/28 00:37:46;;;;;;;4.03;3.17;;;-2.40;72.60;;;-3.08;70.29;98817.69;5086863;28;20467;-71
2023/02/28 00:40:13;;;;;;;4.17;3.87;;;-2.40;72.70;;;-3.75;70.38;98720.06;5091565;28;20438;-72
2023/02/28 00:42:42;;;;;;;4.40;3.23;;;-2.50;72.60;;;-3.10;70.40;98820.41;5092596;28;20439;-70
2023/02/28 00:45:10;;;;;;;4.37;3.90;;;-2.40;73.00;;;-3.19;70.62;98811.34;5103870;28;20461;-70
2023/02/28 00:47:37;;;;;;;5.17;3.97;;;-2.50;72.80;;;-3.73;70.53;98739.28;5084003;28;20478;-72
2023/02/28 00:50:06;;;;;;;5.00;3.47;;;-2.50;73.20;;;-3.20;70.52;98807.00;5084701;28;20794;-73
2023/02/28 00:52:33;;;;;;;4.20;3.70;;;-2.50;72.90;;;-3.11;70.68;98815.22;5106053;27;20866;-70
2023/02/28 00:55:01;;;;;;;4.93;4.20;;;-2.50;72.90;;;-3.17;70.62;98808.59;5107547;27;20450;-72
2023/02/28 00:57:28;;;;;;;7.00;4.50;;;-2.50;73.00;;;-3.14;70.88;98801.28;5109261;28;20457;-70
2023/02/28 00:59:57;;;;;;;6.27;4.50;;;-2.50;73.00;;;-3.72;70.63;98714.56;5137641;27;20457;-70
2023/02/28 01:02:24;;;;;;;5.30;4.43;;;-2.50;72.90;;;-3.07;70.85;98811.44;5090385;28;20455;-70
2023/02/28 01:04:51;;;;;;;5.00;4.00;;;-2.40;73.00;;;-3.07;70.93;98804.31;5098609;28;20505;-70
2023/02/28 01:07:19;;;;;;;6.37;4.53;;;-2.40;72.90;;;-3.06;70.53;98799.91;5099861;27;20786;-72
2023/02/28 01:09:46;;;;;;;7.40;3.80;;;-2.40;72.90;;;-3.54;70.34;98719.53;5095921;28;20441;-72
2023/02/28 01:12:13;;;;;;;4.60;3.73;;;-2.40;72.80;;;-3.16;70.24;98783.84;5112527;27;21026;-71
2023/02/28 01:14:41;;;;;;;6.13;4.50;;;-2.30;72.80;;;-3.00;70.65;98799.44;5092506;28;20454;-71
2023/02/28 01:17:10;;;;;;;4.50;4.10;;;-2.40;72.80;;;-3.04;70.49;98797.97;5078178;28;20462;-71
2023/02/28 01:19:37;;;;;;;5.10;4.10;;;-2.40;72.80;;;-3.14;70.95;98788.06;5104664;27;20473;-72
2023/02/28 01:22:06;;;;;;;4.70;4.30;;;-2.40;72.80;;;-3.07;70.61;98787.63;5098597;28;20816;-71
2023/02/28 01:24:33;;;;;;;5.80;3.90;;;-2.40;72.80;;;-3.36;70.61;98733.22;5091173;28;20492;-70
2023/02/28 01:27:01;;;;;;;5.30;4.40;;;-2.30;72.80;;;-2.98;70.38;98808.09;5092383;28;20433;-70
2023/02/28 01:29:28;;;;;;;5.70;3.90;;;-2.30;72.80;;;-2.96;70.63;98794.78;5094330;28;20457;-72
2023/02/28 01:31:56;;;;;;;4.80;3.90;;;-2.30;72.70;;;-3.04;70.80;98792.69;5091641;28;20499;-70
2023/02/28 01:34:25;;;;;;;6.10;4.00;;;-2.30;72.80;;;-2.97;70.50;98793.94;5102206;28;20443;-70
2023/02/28 01:36:52;;;;;;;4.67;4.20;;;-2.30;72.90;;;-3.32;70.59;98734.72;5089498;28;20454;-70
2023/02/28 01:39:19;;;;;;;5.90;4.33;;;-2.30;73.00;;;-3.03;70.85;98781.16;5096407;28;20440;-70
2023/02/28 01:41:47;;;;;;;6.13;4.07;;;-2.30;72.90;;;-3.02;71.16;98791.63;5119887;27;20458;-72
2023/02/28 01:45:02;;;;;;;5.00;4.30;;;-2.30;73.10;;;-3.06;70.98;98778.75;5098892;28;20451;-70
2023/02/28 01:47:34;;;;;;;6.90;3.90;;;-2.30;73.10;;;-3.03;71.20;98778.53;5084991;28;20457;-71
2023/02/28 01:50:08;;;;;;;6.30;4.30;;;-2.30;73.10;;;-3.08;71.21;98785.94;5146097;27;20503;-71
2023/02/28 01:52:37;;;;;;;7.27;4.93;;;-2.40;73.10;;;-3.48;71.20;98716.44;5107896;27;20466;-70
2023/02/28 01:55:08;;;;;;;6.23;4.30;;;-2.40;73.20;;;-3.29;71.07;98757.41;5081609;28;20921;-72
2023/02/28 01:57:39;;;;;;;5.40;4.23;;;-2.30;73.10;;;-2.99;71.01;98777.34;5121524;27;20538;-72
2023/02/28 02:00:10;;;;;;;5.60;4.23;;;-2.40;73.20;;;-3.06;71.44;98779.56;5081017;28;20480;-69
2023/02/28 02:02:43;;;;;;;5.83;4.30;;;-2.40;73.30;;;-3.11;71.40;98781.72;5084503;28;20486;-70
2023/02/28 02:05:16;;;;;;;7.50;4.53;;;-2.40;73.70;;;-3.10;71.76;98786.03;5110299;27;20533;-68
2023/02/28 02:07:46;;;;;;;4.50;3.80;;;-2.40;73.50;;;-3.09;71.57;98778.97;5085974;28;20456;-68
2023/02/28 02:10:16;;;;;;;7.40;4.40;;;-2.40;73.50;;;-3.10;71.82;98772.00;5091152;28;20449;-71
2023/02/28 02:13:28;;;;;;;4.50;4.10;;;-2.50;73.60;;;-3.67;71.61;98679.09;5077123;28;20466;-69
2023/02/28 02:16:05;;;;;;;5.07;4.00;;;-2.40;73.80;;;-3.16;71.83;98779.38;5088307;28;20469;-70
2023/02/28 02:18:41;;;;;;;4.90;4.40;;;-2.40;73.80;;;-3.14;71.79;98774.84;5083278;28;20455;-68
2023/02/28 02:22:14;;;;;;;5.30;4.23;;;-2.40;73.80;;;-3.18;71.63;98769.91;5122854;27;21162;-70
2023/02/28 02:25:11;;;;;;;5.20;4.10;;;-2.40;74.00;;;-3.15;72.00;98759.94;5090205;28;20772;-70
2023/02/28 02:28:00;;;;;;;4.40;3.93;;;-2.50;73.90;;;-3.27;71.92;98743.16;5086160;28;20461;-69
2023/02/28 02:31:29;;;;;;;4.50;3.90;;;-2.50;74.10;;;-3.23;72.12;98772.00;5075431;28;20455;-70
2023/02/28 02:34:49;;;;;;;6.40;4.77;;;-2.50;74.10;;;-3.21;72.06;98760.38;5090973;28;20470;-70
2023/02/28 02:37:31;;;;;;;6.80;4.17;;;-2.50;74.30;;;-3.21;72.12;98760.38;5048970;28;20469;-68
2023/02/28 02:40:07;;;;;;;5.83;3.63;;;-2.60;74.40;;;-3.27;72.38;98760.78;5082115;28;20576;-69
2023/02/28 02:42:43;;;;;;;7.07;4.73;;;-2.60;74.40;;;-3.23;72.04;98767.56;5085300;28;20567;-70
2023/02/28 02:45:16;;;;;;;5.70;4.33;;;-2.60;74.60;;;-3.25;72.52;98758.06;5099091;28;20554;-69
2023/02/28 02:47:46;;;;;;;5.63;4.60;;;-2.60;74.60;;;-3.33;72.97;98758.59;5096263;28;20458;-69
2023/02/28 02:50:21;;;;;;;5.53;5.00;;;-2.60;74.80;;;-3.34;72.79;98748.97;5111463;27;20462;-69
2023/02/28 02:52:53;;;;;;;5.30;4.80;;;-2.60;74.70;;;-3.57;72.80;98727.66;5103012;27;20525;-68
2023/02/28 02:55:23;;;;;;;6.40;4.13;;;-2.70;74.90;;;-3.29;72.67;98760.06;5096974;28;20546;-68
2023/02/28 02:57:55;;;;;;;8.10;5.10;;;-2.60;75.00;;;-3.30;72.74;98758.38;5097946;28;20457;-69
2023/02/28 03:00:27;;;;;;;6.23;4.70;;;-2.60;75.10;;;-3.32;73.16;98760.28;5091234;28;20482;-69
2023/02/28 03:02:56;;;;;;;7.70;5.10;;;-2.60;75.10;;;-3.30;73.06;98761.03;5080721;28;20459;-69
2023/02/28 03:05:31;;;;;;;7.30;5.53;;;-2.60;75.10;;;-3.34;73.01;98755.09;5090003;28;20458;-70
2023/02/28 03:07:58;;;;;;;7.77;5.17;;;-2.60;75.20;;;-3.37;73.42;98759.78;5082881;28;21728;-70
2023/02/28 03:10:39;;;;;;;6.13;4.67;;;-2.70;75.20;;;-3.67;73.16;98703.69;5096159;28;20470;-69
2023/02/28 03:13:47;;;;;;;5.37;4.13;;;-2.70;75.50;;;-3.29;72.97;98760.06;5100068;27;20546;-69
2023/02/28 03:16:37;;;;;;;6.47;4.93;;;-2.60;75.20;;;-3.27;72.75;98755.50;5085830;28;20462;-70
2023/02/28 03:19:30;;;;;;;6.33;4.93;;;-2.60;75.30;;;-3.86;72.83;98675.09;5054310;28;20457;-71
2023/02/28 03:22:15;;;;;;;6.43;5.30;;;-2.60;75.30;;;-3.48;73.55;98758.72;5083995;28;20454;-69
2023/02/28 03:24:51;;;;;;;5.43;4.80;;;-2.70;75.40;;;-3.37;73.20;98751.84;5071900;28;20531;-68
2023/02/28 03:27:25;;;;;;;9.73;6.47;;;-2.60;75.30;;;-3.36;72.94;98766.75;5085109;28;20489;-69
2023/02/28 03:30:01;;;;;;;6.90;4.80;;;-2.70;75.50;;;-3.33;73.21;98767.38;5097613;28;20480;-67
2023/02/28 03:32:36;;;;;;;8.30;5.90;;;-2.60;75.40;;;-3.39;73.10;98751.94;5087171;28;20472;-68
2023/02/28 03:35:10;;;;;;;6.97;5.80;;;-2.60;75.40;;;-3.35;73.06;98768.44;5093487;28;20535;-69
2023/02/28 03:37:43;;;;;;;8.10;5.50;;;-2.60;75.40;;;-3.41;73.38;98764.44;5089497;28;20465;-67
2023/02/28 03:40:15;;;;;;;6.80;5.50;;;-2.70;75.50;;;-3.36;73.29;98766.75;5087795;28;21109;-70
2023/02/28 03:42:46;;;;;;;7.17;6.07;;;-2.60;75.60;;;-3.44;73.13;98754.09;5104137;28;20935;-69
2023/02/28 03:45:19;;;;;;;8.33;5.60;;;-2.60;75.30;;;-3.32;73.04;98770.84;5101632;28;20455;-68
2023/02/28 03:47:52;;;;;;;10.13;6.10;;;-2.60;75.40;;;-3.24;73.18;98765.03;5108666;27;21143;-69
2023/02/28 03:50:23;;;;;;;6.43;5.83;;;-2.60;75.40;;;-3.33;73.20;98771.81;5089537;28;20451;-71
2023/02/28 03:53:00;;;;;;;8.73;5.70;;;-2.70;75.50;;;-3.40;73.27;98760.84;5088358;28;20479;-70
2023/02/28 03:55:30;;;;;;;6.33;5.70;;;-2.70;75.70;;;-3.33;73.34;98771.81;5104365;28;20918;-70
2023/02/28 03:58:02;;;;;;;7.47;6.20;;;-2.70;75.80;;;-3.33;73.23;98777.09;5088483;28;20938;-70
2023/02/28 04:00:35;;;;;;;7.50;6.10;;;-2.70;75.70;;;-3.32;73.32;98769.06;5086034;28;20460;-68
2023/02/28 04:03:03;;;;;;;7.37;5.90;;;-2.70;75.60;;;-3.29;73.29;98773.28;5100533;28;20451;-70
2023/02/28 04:05:31;;;;;;;10.63;5.90;;;-2.70;75.80;;;-3.31;73.14;98775.19;5084157;28;20437;-70
2023/02/28 04:08:07;;;;;;;8.50;5.60;;;-2.70;75.70;;;-3.40;72.88;98762.66;5088416;28;20511;-70
2023/02/28 04:10:34;;;;;;;7.33;6.47;;;-2.70;75.90;;;-3.29;73.04;98775.91;5079080;28;20546;-69
2023/02/28 04:13:02;;;;;;;8.47;5.70;;;-2.70;75.80;;;-3.33;72.79;98774.47;5075779;28;21240;-71
2023/02/28 04:15:29;;;;;;;7.37;6.23;;;-2.70;75.60;;;-3.30;72.96;98779.53;5092547;28;20439;-69
2023/02/28 04:17:56;;;;;;;8.37;6.70;;;-2.70;75.70;;;-3.28;72.98;98780.25;5104860;28;20465;-69
2023/02/28 04:20:25;;;;;;;8.40;6.40;;;-2.70;75.90;;;-3.31;72.96;98785.75;5105786;28;20921;-70
2023/02/28 04:22:52;;;;;;;8.90;6.20;;;-2.70;75.80;;;-3.34;72.95;98770.94;5092714;28;20507;-70
2023/02/28 04:25:21;;;;;;;10.80;7.17;;;-2.70;75.70;;;-3.31;73.26;98776.06;5101503;28;20507;-69
2023/02/28 04:27:48;;;;;;;10.80;6.23;;;-2.70;75.80;;;-3.25;73.32;98777.41;5089889;28;20938;-70
2023/02/28 04:30:15;;;;;;;8.27;6.80;;;-2.60;75.90;;;-3.25;72.91;98785.34;5083568;28;20444;-69
2023/02/28 04:32:43;;;;;;;9.13;6.33;;;-2.70;75.70;;;-3.24;73.11;98781.75;5098596;28;20472;-68
2023/02/28 04:35:10;;;;;;;9.23;6.70;;;-2.60;75.90;;;-3.22;73.06;98779.84;5092278;28;20511;-69
2023/02/28 04:37:38;;;;;;;12.10;6.90;;;-2.60;75.70;;;-3.29;72.76;98770.63;5093308;28;20453;-69
2023/02/28 04:40:07;;;;;;;8.73;6.50;;;-2.60;75.60;;;-3.50;72.98;98744.78;5080177;28;20437;-69
2023/02/28 04:42:36;;;;;;;6.90;6.20;;;-2.60;75.50;;;-3.21;72.80;98783.31;5132403;27;20962;-69
2023/02/28 04:45:04;;;;;;;9.97;6.37;;;-2.60;75.70;;;-3.20;72.40;98777.94;5087086;28;20520;-69
2023/02/28 04:47:31;;;;;;;11.77;7.23;;;-2.60;75.60;;;-3.13;72.86;98778.34;5092486;28;20450;-70
2023/02/28 04:49:59;;;;;;;8.70;6.90;;;-2.60;75.70;;;-3.28;73.12;98769.69;5120823;27;21141;-70
2023/02/28 04:52:28;;;;;;;7.23;5.70;;;-2.60;75.60;;;-3.25;73.36;98777.41;5096806;28;20479;-68
2023/02/28 04:54:55;;;;;;;7.73;6.93;;;-2.60;75.80;;;-3.17;72.93;98767.13;5087601;28;20454;-67
2023/02/28 04:57:23;;;;;;;6.77;5.97;;;-2.60;75.60;;;-3.25;73.32;98772.13;5085385;28;20449;-70
2023/02/28 04:59:51;;;;;;;9.77;6.40;;;-2.60;75.80;;;-3.31;72.92;98768.13;5104049;28;21231;-69
2023/02/28 05:02:20;;;;;;;8.33;6.40;;;-2.60;75.70;;;-3.16;73.08;98776.75;5102824;28;20445;-69
2023/02/28 05:04:47;;;;;;;9.30;6.47;;;-2.60;75.80;;;-3.30;72.85;98768.94;5101537;28;20824;-70
2023/02/28 05:07:14;;;;;;;7.53;6.17;;;-2.60;75.70;;;-3.74;73.32;98700.63;5094191;28;20441;-68
2023/02/28 05:09:42;;;;;;;6.90;6.20;;;-2.60;75.70;;;-3.22;72.93;98784.25;5100230;28;20451;-69
2023/02/28 05:12:11;;;;;;;8.17;7.37;;;-2.60;75.70;;;-3.25;73.11;98789.78;5087200;28;20467;-71
2023/02/28 05:14:38;;;;;;;7.67;5.57;;;-2.60;75.90;;;-3.23;73.29;98785.22;5092955;28;21030;-69
2023/02/28 05:17:06;;;;;;;10.80;6.43;;;-2.60;75.90;;;-3.34;73.11;98781.53;5107744;28;20445;-70
2023/02/28 05:19:34;;;;;;;8.17;6.80;;;-2.60;76.00;;;-3.28;73.22;98782.91;5083302;28;20465;-70
2023/02/28 05:22:02;;;;;;;7.43;6.47;;;-2.60;76.10;;;-3.30;73.20;98782.16;5093163;28;20447;-70
2023/02/28 05:24:29;;;;;;;7.33;6.60;;;-2.60;76.20;;;-3.21;73.39;98785.94;5084454;28;20554;-69
2023/02/28 05:26:56;;;;;;;9.60;6.63;;;-2.60;76.20;;;-3.40;73.51;98778.50;5098571;28;20457;-71
2023/02/28 05:29:24;;;;;;;9.50;6.93;;;-2.60;76.20;;;-3.34;73.76;98786.81;5113546;27;20445;-70
2023/02/28 05:31:51;;;;;;;9.77;6.60;;;-2.60;76.00;;;-3.30;73.52;98785.66;5094717;28;20450;-71
2023/02/28 05:34:20;;;;;;;9.70;7.23;;;-2.60;76.30;;;-3.25;73.30;98790.63;5090938;28;20473;-70
2023/02/28 05:36:47;;;;;;;10.57;7.17;;;-2.60;76.30;;;-3.35;73.57;98784.31;5102101;27;20528;-69
2023/02/28 05:39:14;;;;;;;8.50;6.13;;;-2.60;76.20;;;-3.29;73.40;98783.84;5088429;28;20515;-68
2023/02/28 05:41:42;;;;;;;11.47;7.77;;;-2.70;76.50;;;-3.18;73.31;98786.59;5109720;28;20510;-67
2023/02/28 05:44:10;;;;;;;7.80;6.70;;;-2.60;76.20;;;-3.81;73.46;98704.66;5105506;28;20444;-68
2023/02/28 05:46:38;;;;;;;6.83;5.93;;;-2.60;76.20;;;-3.65;73.26;98719.44;5095413;28;20514;-70
2023/02/28 05:49:05;;;;;;;10.40;6.00;;;-2.60;76.30;;;-3.12;73.12;98801.19;5091255;28;20447;-69
2023/02/28 05:51:36;;;;;;;8.70;7.07;;;-2.50;75.90;;;-3.24;73.46;98802.03;5081787;28;21155;-74
2023/02/28 05:54:04;;;;;;;6.63;5.70;;;-2.60;76.00;;;-3.24;73.22;98800.25;5118982;27;20516;-76
2023/02/28 05:56:31;;;;;;;10.87;7.37;;;-2.60;76.10;;;-3.17;73.18;98792.75;5101781;28;20448;-70
2023/02/28 05:58:58;;;;;;;8.23;6.50;;;-2.60;76.20;;;-3.28;73.12;98796.13;5089285;28;20472;-69
2023/02/28 06:01:35;;;;;;;9.87;7.37;;;-2.70;76.30;;;-3.30;73.55;98793.59;5100717;28;20513;-70
2023/02/28 06:04:04;;;;;;;8.20;6.77;;;-2.60;76.30;;;-3.14;73.24;98797.81;5087996;28;21188;-70
2023/02/28 06:06:34;;;;;;;9.50;6.73;;;-2.60;76.10;;;-3.35;73.40;98790.41;5083549;28;20502;-69
2023/02/28 06:09:01;;;;;;;7.73;6.80;;;-2.60;76.20;;;-3.27;73.55;98788.09;5087301;28;20447;-72
2023/02/28 06:11:28;;;;;;;12.63;7.00;;;-2.60;76.30;;;-3.33;73.31;98803.53;5115684;27;20455;-73
2023/02/28 06:13:59;;;;;;;8.37;6.43;;;-2.60;76.00;;;-3.25;73.34;98806.50;5092649;28;20504;-73
2023/02/28 06:16:27;;;;;;;12.70;7.30;;;-2.60;76.20;;;-3.18;73.06;98802.44;5086357;28;20438;-76
2023/02/28 06:18:56;;;;;;;13.83;10.10;;;-2.60;76.10;;;-3.19;73.22;98805.19;5126986;27;20807;-73
2023/02/28 06:21:23;;;;;;;10.77;7.80;;;-2.60;75.80;;;-3.23;72.75;98809.00;5101310;27;20498;-73
2023/02/28 06:23:52;;;;;;;8.03;7.23;;;-2.60;75.70;;;-3.17;72.71;98803.31;5097082;28;20484;-72
2023/02/28 06:26:19;;;;;;;9.43;6.80;;;-2.50;75.60;;;-3.11;72.72;98809.94;5085275;28;21036;-72
2023/02/28 06:28:46;;;;;;;8.47;6.93;;;-2.50;75.60;;;-3.11;72.78;98808.16;5089193;28;20458;-69
2023/02/28 06:31:17;;;;;;;9.10;8.10;;;-2.40;75.40;;;-3.40;72.08;98744.16;5109629;28;20486;-71
2023/02/28 06:33:45;;;;;;;9.70;7.10;;;-2.40;75.20;;;-3.07;72.42;98822.84;5096809;28;20499;-71
2023/02/28 06:36:14;;;;;;;9.30;6.60;;;-2.40;75.30;;;-2.97;71.93;98819.53;5087368;28;20541;-70
2023/02/28 06:38:43;;;;;;;9.57;7.10;;;-2.40;74.90;;;-2.88;71.82;98818.88;5094693;27;20466;-70
2023/02/28 06:41:12;;;;;;;11.97;7.40;;;-2.30;74.80;;;-2.93;71.93;98813.94;5084105;28;20977;-71
2023/02/28 06:43:43;;;;;;;8.97;6.97;;;-2.30;74.60;;;-2.81;71.56;98819.28;5091141;28;20477;-71
2023/02/28 06:46:14;;;;;;;13.07;8.13;;;-2.20;74.70;;;-2.77;72.11;98826.06;5103729;27;20936;-73
2023/02/28 06:48:43;;;;;;;11.83;7.40;;;-2.10;75.00;;;-2.64;71.53;98826.00;5088942;28;20472;-70
2023/02/28 06:51:13;;;;;;;12.10;7.30;;;-2.00;74.70;;;-2.63;70.88;98831.19;5084375;28;20466;-69
2023/02/28 06:53:42;;;;;;;10.20;7.27;;;-2.00;74.00;;;-2.67;70.60;98826.22;5077486;28;20577;-71
2023/02/28 06:56:13;;;;;;;9.37;7.60;;;-2.00;73.60;;;-2.56;70.53;98823.66;5104574;27;20458;-70
2023/02/28 06:58:41;;;;;;;8.70;7.80;;;-1.90;73.80;;;-2.60;70.09;98824.81;5080039;28;20472;-71
2023/02/28 07:01:08;;;;;;;9.10;7.50;;;-1.90;73.60;;;-2.59;70.64;98824.72;5089806;27;20455;-69
2023/02/28 07:03:37;;;;;;;13.27;7.80;;;-1.90;73.60;;;-2.71;70.40;98826.47;5091981;28;20470;-70
2023/02/28 07:06:06;;;;;;;10.30;8.00;;;-1.90;73.20;;;-2.47;69.85;98828.25;5082268;28;20584;-72
2023/02/28 07:08:33;;;;;;;10.63;7.50;;;-1.80;73.10;;;-2.48;69.81;98823.09;5078512;28;20452;-71
2023/02/28 07:11:01;;;;;;;9.40;7.10;;;-1.80;73.00;;;-2.32;68.95;98830.75;5084403;28;20467;-70
2023/02/28 07:13:30;;;;;;;13.67;8.57;;;-1.70;72.80;;;-2.15;69.26;98837.44;5082145;28;21315;-71
2023/02/28 07:15:59;;;;;;;11.80;10.10;;;-1.60;72.60;;;-2.38;69.28;98812.69;5099225;27;20462;-71
2023/02/28 07:18:27;;;;;;;9.73;7.97;;;-1.60;72.40;;;-2.50;68.23;98753.53;5079610;28;20238;-72
2023/02/28 07:20:54;;;;;;;11.37;7.67;;;-1.50;72.10;;;-1.93;67.71;98841.13;5084294;28;20489;-70
2023/02/28 07:23:22;;;;;;;9.20;7.50;;;-1.30;71.80;;;-1.92;67.50;98842.81;5094082;27;20542;-71
2023/02/28 07:25:51;;;;;;;13.87;8.10;;;-1.30;71.40;;;-1.85;67.55;98844.06;5100347;27;20447;-72
2023/02/28 07:28:18;;;;;;;9.80;7.53;;;-1.30;71.30;;;-1.75;67.68;98850.31;5097102;27;20796;-68
2023/02/28 07:30:48;;;;;;;13.07;8.10;;;-1.20;71.30;;;-1.63;67.51;98837.09;5111922;27;20912;-71
2023/02/28 07:33:16;;;;;;;10.20;7.57;;;-1.10;71.10;;;-1.67;66.41;98839.13;5082968;28;20568;-70
2023/02/28 07:35:44;;;;;;;15.07;7.20;;;-1.00;70.80;;;-1.59;66.07;98838.59;5111896;27;20464;-72
2023/02/28 07:38:13;;;;;;;9.83;7.30;;;-0.90;70.60;;;-1.62;66.50;98834.34;5088771;28;20458;-70
2023/02/28 07:40:41;;;;;;;13.17;8.17;;;-1.00;70.30;;;-1.63;65.93;98842.41;5125871;27;20452;-71
2023/02/28 07:43:08;;;;;;;10.83;8.20;;;-0.90;70.20;;;-1.41;65.70;98838.13;5106320;27;20509;-69
2023/02/28 07:45:35;;;;;;;16.60;8.77;;;-0.80;70.20;;;-1.52;66.45;98844.22;5097090;28;20455;-70
2023/02/28 07:48:04;;;;;;;11.30;7.87;;;-0.80;69.90;;;-1.45;65.98;98838.34;5090277;28;20451;-70
2023/02/28 07:50:31;;;;;;;10.63;7.30;;;-0.80;70.10;;;-1.31;65.91;98850.53;5083546;28;20455;-69
2023/02/28 07:52:59;;;;;;;12.80;9.10;;;-0.60;69.90;;;-1.25;65.20;98848.38;5086055;27;20452;-71
2023/02/28 07:55:26;;;;;;;11.93;8.47;;;-0.50;69.70;;;-1.63;65.47;98784.09;5083613;28;20905;-69
2023/02/28 07:57:53;;;;;;;11.17;8.50;;;-0.50;69.50;;;-1.13;64.97;98847.41;5088545;28;20561;-71
2023/02/28 08:00:21;;;;;;;13.30;9.33;;;-0.50;69.10;;;-1.11;64.66;98812.81;5098443;28;20617;-69
2023/02/28 08:02:49;;;;;;;12.33;9.27;;;-0.30;69.20;;;-0.63;63.59;98846.16;5107245;27;20456;-71
2023/02/28 08:05:18;;;;;;;12.83;8.50;;;-0.10;68.90;;;-0.60;63.24;98846.78;5082006;28;20439;-71
2023/02/28 08:07:47;;;;;;;19.10;9.17;;;0.00;68.20;;;-0.62;63.15;98851.38;5089894;28;20458;-71
2023/02/28 08:10:14;;;;;;;12.97;8.50;;;0.10;68.00;;;-0.51;63.03;98850.50;5083080;28;20454;-72
2023/02/28 08:12:41;;;;;;;12.00;8.73;;;0.10;67.60;;;-0.38;62.60;98850.34;5101352;27;20454;-71
2023/02/28 08:15:10;;;;;;;11.73;9.20;;;0.20;67.40;;;-0.25;62.12;98846.69;5081245;28;20469;-70
2023/02/28 08:17:37;;;;;;;11.20;8.80;;;0.30;67.20;;;-0.52;62.25;98838.19;5069790;28;21381;-76
2023/02/28 08:20:06;;;;;;;10.97;8.30;;;0.30;66.40;;;-0.25;61.75;98842.22;5105982;27;20461;-71
2023/02/28 08:22:34;;;;;;;13.10;8.43;;;0.30;66.60;;;-0.40;62.20;98840.81;5093707;28;20445;-72
2023/02/28 08:25:02;;;;;;;10.27;8.67;;;0.30;66.20;;;-0.44;61.58;98845.53;5081105;28;21252;-71
2023/02/28 08:27:29;;;;;;;18.00;10.07;;;0.30;65.40;;;-0.34;61.42;98848.28;5105138;27;20447;-72
2023/02/28 08:29:56;;;;;;;17.70;9.53;;;0.30;65.40;;;-0.32;61.83;98849.84;5089505;28;20445;-72
2023/02/28 08:32:24;;;;;;;11.23;8.80;;;0.30;65.40;;;-0.03;61.28;98837.78;5099019;28;20447;-71
2023/02/28 08:34:51;;;;;;;15.33;9.37;;;0.50;65.30;;;0.06;60.81;98852.09;5083914;28;20519;-71
2023/02/28 08:37:18;;;;;;;10.80;7.97;;;0.60;64.90;;;-0.06;60.16;98844.22;5106571;28;20454;-71
2023/02/28 08:39:48;;;;;;;12.10;8.60;;;0.60;63.70;;;0.01;60.32;98846.34;5089897;28;20464;-72
2023/02/28 08:42:15;;;;;;;12.70;9.30;;;0.60;63.70;;;-0.34;60.02;98832.34;5071584;28;20813;-72
2023/02/28 08:44:42;;;;;;;10.53;8.70;;;0.60;63.10;;;-0.15;60.28;98851.13;5090204;28;20447;-71
2023/02/28 08:47:10;;;;;;;13.10;8.77;;;0.50;63.40;;;-0.08;59.99;98850.59;5077189;28;20442;-70
2023/02/28 08:49:38;;;;;;;10.43;8.40;;;0.60;63.10;;;-0.59;59.70;98779.44;5084768;28;20463;-69
2023/02/28 08:52:05;;;;;;;10.70;8.83;;;0.50;62.40;;;-0.03;59.08;98843.94;5080035;28;20446;-70
2023/02/28 08:54:34;;;;;;;13.60;9.67;;;0.70;62.30;;;0.25;58.98;98856.75;5082341;28;20901;-71
2023/02/28 08:57:03;;;;;;;12.20;8.50;;;0.80;62.50;;;0.34;57.90;98855.13;5088456;28;20438;-72
2023/02/28 08:59:31;;;;;;;12.73;9.53;;;0.90;61.70;;;0.31;58.65;98855.38;5112918;27;20450;-70
2023/02/28 09:01:58;;;;;;;12.83;10.37;;;1.00;61.80;;;0.11;58.55;98860.56;5100437;28;20493;-70
2023/02/28 09:04:26;;;;;;;11.20;9.17;;;0.90;61.30;;;-0.01;58.28;98842.00;5089092;28;20918;-72
2023/02/28 09:06:53;;;;;;;14.27;10.57;;;0.80;60.90;;;0.02;58.66;98848.03;5116117;27;20452;-72
2023/02/28 09:09:20;;;;;;;11.80;8.90;;;0.80;60.80;;;0.19;57.81;98850.13;5085969;28;21000;-71
2023/02/28 09:11:48;;;;;;;11.40;9.03;;;0.90;60.60;;;0.25;58.17;98846.97;5083333;28;20943;-72
2023/02/28 09:14:17;;;;;;;13.20;9.30;;;0.90;60.50;;;0.22;58.29;98844.53;5090935;27;20480;-72
2023/02/28 09:16:44;;;;;;;13.10;10.00;;;0.90;60.80;;;0.40;57.53;98839.50;5088408;28;20444;-73
2023/02/28 09:19:12;;;;;;;15.17;9.67;;;1.00;60.60;;;0.48;56.90;98840.69;5089469;28;20484;-71
2023/02/28 09:21:39;;;;;;;12.77;9.47;;;1.10;59.80;;;0.79;56.97;98838.03;5081621;28;20458;-73
2023/02/28 09:24:08;;;;;;;8.03;7.20;;;1.30;59.80;;;0.82;55.46;98837.78;5093118;28;20998;-71
2023/02/28 09:26:36;;;;;;;12.97;9.60;;;1.50;58.70;;;0.92;55.42;98837.81;5081929;28;20546;-71
2023/02/28 09:29:03;;;;;;;16.97;8.60;;;1.60;58.20;;;0.69;55.38;98840.66;5087951;28;20459;-71
2023/02/28 09:31:32;;;;;;;10.87;8.70;;;1.40;57.50;;;0.89;55.50;98835.41;5108625;28;20445;-71
2023/02/28 09:34:01;;;;;;;12.00;8.83;;;1.50;57.80;;;0.79;55.93;98822.91;5101687;27;20460;-73
2023/02/28 09:36:29;;;;;;;9.10;8.20;;;1.50;57.90;;;1.06;54.61;98834.78;5083533;28;20457;-71
2023/02/28 09:38:57;;;;;;;12.53;9.03;;;1.70;57.20;;;1.03;53.96;98815.56;5102176;28;20978;-72
2023/02/28 09:41:28;;;;;;;13.20;9.40;;;1.90;56.80;;;0.86;55.03;98839.19;5082353;28;21022;-72
2023/02/28 09:43:58;;;;;;;14.23;7.90;;;1.70;56.40;;;0.91;54.75;98836.97;5091629;28;20440;-69
2023/02/28 09:46:35;;;;;;;10.53;8.00;;;1.60;56.10;;;1.25;53.89;98849.13;5086366;28;20460;-72
2023/02/28 09:49:06;;;;;;;12.67;8.10;;;1.70;55.90;;;1.32;53.81;98844.13;5103536;28;20943;-71
2023/02/28 09:51:51;;;;;;;13.80;9.97;;;1.90;55.90;;;0.82;53.23;98793.38;5106229;27;21192;-72
2023/02/28 09:54:22;;;;;;;10.47;8.40;;;1.90;55.30;;;0.54;53.85;98803.75;5077355;28;20476;-70
2023/02/28 09:56:54;;;;;;;12.70;9.10;;;1.70;55.00;;;0.99;53.50;98841.63;5098322;28;21321;-72
2023/02/28 09:59:39;;;;;;;11.00;8.57;;;1.70;55.00;;;1.08;53.46;98842.66;5091923;28;20528;-73
2023/02/28 10:02:31;;;;;;;12.17;8.43;;;1.70;54.80;;;1.25;52.91;98849.13;5116958;27;20466;-70
2023/02/28 10:05:01;;;;;;;11.30;9.40;;;1.80;54.70;;;1.61;52.01;98841.53;5084625;28;20459;-71
2023/02/28 10:07:49;;;;;;;12.17;8.77;;;2.00;54.50;;;1.91;51.74;98847.75;5090133;28;20502;-72
2023/02/28 10:10:24;;;;;;;11.00;8.17;;;2.30;54.10;;;2.02;51.44;98843.22;5111874;27;20455;-71
2023/02/28 10:12:56;;;;;;;11.73;8.07;;;2.50;53.70;;;1.79;51.40;98835.53;5094973;28;20467;-72
2023/02/28 10:15:28;;;;;;;11.27;8.03;;;2.50;53.00;;;1.95;51.10;98842.94;5103510;27;22397;-70
2023/02/28 10:18:01;;;;;;;10.70;7.83;;;2.50;53.00;;;2.14;50.68;98844.78;5114425;28;20446;-72
2023/02/28 10:20:31;;;;;;;11.80;8.10;;;2.60;52.80;;;2.07;50.35;98817.00;5106668;28;22916;-71
2023/02/28 10:23:07;;;;;;;11.30;8.33;;;2.70;52.50;;;2.40;49.90;98841.53;5096153;28;20456;-70
2023/02/28 10:25:36;;;;;;;11.00;8.13;;;2.80;52.30;;;2.58;49.63;98830.13;5088358;28;20439;-70
2023/02/28 10:28:11;;;;;;;10.00;8.43;;;3.00;51.90;;;2.45;49.26;98841.94;5086030;28;20481;-70
2023/02/28 10:30:43;;;;;;;11.90;7.20;;;3.00;51.00;;;2.34;49.32;98842.09;5090276;28;20492;-71
2023/02/28 10:33:24;;;;;;;10.77;7.50;;;2.90;50.80;;;2.57;48.49;98821.25;5110686;28;20462;-71
2023/02/28 10:35:53;;;;;;;10.97;8.10;;;3.10;50.50;;;2.73;48.46;98828.69;5121589;28;20902;-72